Terminal Aerodrome Forecast
Issued by NWS

Home | Current Version | Previous Version | Text Only | Print | Product List | Glossary On
Versions: 1 2 3 4 5 6 7 8 9 10 11 12 13 14 15 16 17 18 19 20 21 22 23 24
000
FTPA31 PHFO 011100
TAFKOA
TAF
PHKO 011125Z 0112/0212 10006KT P6SM BKN060
     FM012000 20010KT P6SM FEW045 SCT060
     FM020500 11006KT P6SM SCT035 BKN060=

USA.gov is the U.S. government's official web portal to all federal, state and local government web resources and services.